Terminal Aerodrome Forecast
Issued by NWS

Home | Current Version | Previous Version | Text Only | Print | Product List | Glossary On
Versions: 1 2 3 4 5 6 7 8 9 10 11 12 13 14 15 16 17 18 19
583
FTUS45 KABQ 220539
TAFAEG
TAF
KAEG 220539Z 2206/2306 30010KT P6SM BKN060
     FM220700 30010KT P6SM FEW060
      TEMPO 2207/2211 30020G28KT
     FM221800 27008KT P6SM SCT130
     FM222200 28006KT P6SM SCT050 BKN100
     FM230100 25005KT P6SM BKN050=

USA.gov is the U.S. government's official web portal to all federal, state and local government web resources and services.